Terminal Aerodrome Forecast
Issued by NWS Charleston, WV

Current Version | Previous Version | Text Only | Print | Product List | Glossary Off
Versions: 1 2 3 4 5 6 7 8 9 10 11 12 13 14 15 16 17 18 19 20 21

486
FTUS41 KRLX 091120
TAFPKB
TAF
KPKB 091120Z 0912/1012 23010G19KT 1/2SM SHSN FZFG OVC007
      TEMPO 0912/0914 2SM -SHSN OVC012
     FM091400 23009KT 3SM -SHSN OVC015
     FM091800 24009KT 5SM -SHSN OVC025
     FM092200 24010G19KT 6SM -SHSN OVC025
     FM100000 26009KT P6SM -SHSN OVC015
     FM100800 27009KT P6SM OVC025=

USA.gov is the U.S. government's official web portal to all federal, state and local government web resources and services.